sensor_id;sensor_type;location;lat;lon;timestamp;P1;durP1;ratioP1;P2;durP2;ratioP2
29294;SDS011;16305;48.566;8.846;2022-09-17T00:00:49;3.43;;;0.90;;
29294;SDS011;16305;48.566;8.846;2022-09-17T00:03:16;1.90;;;0.90;;
29294;SDS011;16305;48.566;8.846;2022-09-17T00:05:42;1.40;;;1.10;;
29294;SDS011;16305;48.566;8.846;2022-09-17T00:08:09;1.63;;;1.40;;
29294;SDS011;16305;48.566;8.846;2022-09-17T00:10:38;3.33;;;1.60;;
29294;SDS011;16305;48.566;8.846;2022-09-17T00:13:05;1.10;;;1.10;;
29294;SDS011;16305;48.566;8.846;2022-09-17T00:15:32;3.53;;;1.40;;
29294;SDS011;16305;48.566;8.846;2022-09-17T00:18:03;3.33;;;1.17;;
29294;SDS011;16305;48.566;8.846;2022-09-17T00:20:28;1.57;;;1.47;;
29294;SDS011;16305;48.566;8.846;2022-09-17T00:22:54;4.50;;;1.73;;
29294;SDS011;16305;48.566;8.846;2022-09-17T00:25:19;3.33;;;1.63;;
29294;SDS011;16305;48.566;8.846;2022-09-17T00:27:45;1.40;;;1.30;;
29294;SDS011;16305;48.566;8.846;2022-09-17T00:30:11;2.47;;;1.60;;
29294;SDS011;16305;48.566;8.846;2022-09-17T00:32:37;2.60;;;1.43;;
29294;SDS011;16305;48.566;8.846;2022-09-17T00:35:03;2.00;;;1.27;;
29294;SDS011;16305;48.566;8.846;2022-09-17T00:37:28;2.43;;;1.50;;
29294;SDS011;16305;48.566;8.846;2022-09-17T00:39:54;2.03;;;1.67;;
29294;SDS011;16305;48.566;8.846;2022-09-17T00:42:19;1.90;;;1.60;;
29294;SDS011;16305;48.566;8.846;2022-09-17T00:44:51;3.10;;;1.93;;
29294;SDS011;16305;48.566;8.846;2022-09-17T00:50:03;2.70;;;1.70;;
29294;SDS011;16305;48.566;8.846;2022-09-17T00:52:40;2.63;;;1.60;;
29294;SDS011;16305;48.566;8.846;2022-09-17T00:55:12;3.30;;;2.00;;
29294;SDS011;16305;48.566;8.846;2022-09-17T00:57:38;1.90;;;1.60;;
29294;SDS011;16305;48.566;8.846;2022-09-17T01:00:05;2.27;;;1.80;;
29294;SDS011;16305;48.566;8.846;2022-09-17T01:02:32;2.60;;;1.80;;
29294;SDS011;16305;48.566;8.846;2022-09-17T01:04:58;3.30;;;1.90;;
29294;SDS011;16305;48.566;8.846;2022-09-17T01:07:31;4.93;;;2.20;;
29294;SDS011;16305;48.566;8.846;2022-09-17T01:17:49;2.43;;;2.20;;
29294;SDS011;16305;48.566;8.846;2022-09-17T01:32:41;4.83;;;1.90;;
29294;SDS011;16305;48.566;8.846;2022-09-17T01:35:25;2.13;;;1.93;;
29294;SDS011;16305;48.566;8.846;2022-09-17T01:38:00;3.07;;;2.07;;
29294;SDS011;16305;48.566;8.846;2022-09-17T01:40:57;2.20;;;2.00;;
29294;SDS011;16305;48.566;8.846;2022-09-17T01:43:34;2.53;;;2.03;;
29294;SDS011;16305;48.566;8.846;2022-09-17T01:46:29;3.00;;;2.40;;
29294;SDS011;16305;48.566;8.846;2022-09-17T01:49:00;5.03;;;2.57;;
29294;SDS011;16305;48.566;8.846;2022-09-17T01:51:29;6.23;;;2.43;;
29294;SDS011;16305;48.566;8.846;2022-09-17T01:57:05;4.90;;;2.70;;
29294;SDS011;16305;48.566;8.846;2022-09-17T01:59:38;4.37;;;2.87;;
29294;SDS011;16305;48.566;8.846;2022-09-17T02:02:38;3.43;;;3.13;;
29294;SDS011;16305;48.566;8.846;2022-09-17T02:05:31;3.67;;;2.87;;
29294;SDS011;16305;48.566;8.846;2022-09-17T02:08:07;4.10;;;3.17;;
29294;SDS011;16305;48.566;8.846;2022-09-17T02:10:55;4.47;;;3.37;;
29294;SDS011;16305;48.566;8.846;2022-09-17T02:13:28;3.30;;;2.93;;
29294;SDS011;16305;48.566;8.846;2022-09-17T02:16:46;4.03;;;2.70;;
29294;SDS011;16305;48.566;8.846;2022-09-17T02:18:54;3.30;;;2.50;;
29294;SDS011;16305;48.566;8.846;2022-09-17T02:21:29;4.47;;;3.00;;
29294;SDS011;16305;48.566;8.846;2022-09-17T02:27:01;3.90;;;2.90;;
29294;SDS011;16305;48.566;8.846;2022-09-17T02:29:36;2.33;;;2.13;;
29294;SDS011;16305;48.566;8.846;2022-09-17T02:32:03;5.40;;;2.40;;
29294;SDS011;16305;48.566;8.846;2022-09-17T02:34:30;2.93;;;2.27;;
29294;SDS011;16305;48.566;8.846;2022-09-17T02:36:56;5.17;;;2.50;;
29294;SDS011;16305;48.566;8.846;2022-09-17T02:39:25;4.20;;;2.70;;
29294;SDS011;16305;48.566;8.846;2022-09-17T02:44:58;3.23;;;2.03;;
29294;SDS011;16305;48.566;8.846;2022-09-17T02:53:04;3.60;;;1.77;;
29294;SDS011;16305;48.566;8.846;2022-09-17T03:01:00;2.70;;;1.93;;
29294;SDS011;16305;48.566;8.846;2022-09-17T03:03:38;4.60;;;2.13;;
29294;SDS011;16305;48.566;8.846;2022-09-17T03:06:07;2.33;;;2.03;;
29294;SDS011;16305;48.566;8.846;2022-09-17T03:08:36;4.67;;;2.30;;
29294;SDS011;16305;48.566;8.846;2022-09-17T03:11:04;2.70;;;2.10;;
29294;SDS011;16305;48.566;8.846;2022-09-17T03:13:32;2.73;;;2.10;;
29294;SDS011;16305;48.566;8.846;2022-09-17T03:15:59;2.90;;;2.37;;
29294;SDS011;16305;48.566;8.846;2022-09-17T03:18:25;5.63;;;2.40;;
29294;SDS011;16305;48.566;8.846;2022-09-17T03:20:50;5.60;;;2.20;;
29294;SDS011;16305;48.566;8.846;2022-09-17T03:23:16;4.60;;;2.30;;
29294;SDS011;16305;48.566;8.846;2022-09-17T03:25:41;7.30;;;2.40;;
29294;SDS011;16305;48.566;8.846;2022-09-17T03:28:07;5.20;;;2.00;;
29294;SDS011;16305;48.566;8.846;2022-09-17T03:30:32;3.73;;;2.27;;
29294;SDS011;16305;48.566;8.846;2022-09-17T03:32:58;2.50;;;2.30;;
29294;SDS011;16305;48.566;8.846;2022-09-17T03:35:23;3.10;;;2.30;;
29294;SDS011;16305;48.566;8.846;2022-09-17T03:37:49;3.50;;;2.10;;
29294;SDS011;16305;48.566;8.846;2022-09-17T03:40:14;4.90;;;2.30;;
29294;SDS011;16305;48.566;8.846;2022-09-17T03:42:40;5.10;;;2.67;;
29294;SDS011;16305;48.566;8.846;2022-09-17T03:45:06;2.87;;;2.37;;
29294;SDS011;16305;48.566;8.846;2022-09-17T03:47:32;3.80;;;2.53;;
29294;SDS011;16305;48.566;8.846;2022-09-17T03:49:57;7.53;;;3.57;;
29294;SDS011;16305;48.566;8.846;2022-09-17T03:52:23;3.10;;;2.80;;
29294;SDS011;16305;48.566;8.846;2022-09-17T03:54:48;3.50;;;3.20;;
29294;SDS011;16305;48.566;8.846;2022-09-17T03:57:14;4.10;;;3.10;;
29294;SDS011;16305;48.566;8.846;2022-09-17T03:59:40;4.00;;;2.73;;
29294;SDS011;16305;48.566;8.846;2022-09-17T04:02:06;6.50;;;2.67;;
29294;SDS011;16305;48.566;8.846;2022-09-17T04:04:31;4.63;;;2.70;;
29294;SDS011;16305;48.566;8.846;2022-09-17T04:06:57;4.37;;;2.97;;
29294;SDS011;16305;48.566;8.846;2022-09-17T04:09:22;5.10;;;2.90;;
29294;SDS011;16305;48.566;8.846;2022-09-17T04:11:48;3.97;;;2.80;;
29294;SDS011;16305;48.566;8.846;2022-09-17T04:14:13;5.20;;;2.67;;
29294;SDS011;16305;48.566;8.846;2022-09-17T04:16:39;3.83;;;2.63;;
29294;SDS011;16305;48.566;8.846;2022-09-17T04:19:04;5.37;;;2.20;;
29294;SDS011;16305;48.566;8.846;2022-09-17T04:21:30;4.93;;;2.67;;
29294;SDS011;16305;48.566;8.846;2022-09-17T04:23:56;4.03;;;2.43;;
29294;SDS011;16305;48.566;8.846;2022-09-17T04:26:21;4.63;;;2.40;;
29294;SDS011;16305;48.566;8.846;2022-09-17T04:28:47;7.83;;;2.20;;
29294;SDS011;16305;48.566;8.846;2022-09-17T04:31:12;6.77;;;2.00;;
29294;SDS011;16305;48.566;8.846;2022-09-17T04:33:38;4.80;;;2.00;;
29294;SDS011;16305;48.566;8.846;2022-09-17T04:36:03;3.27;;;2.23;;
29294;SDS011;16305;48.566;8.846;2022-09-17T04:38:29;4.00;;;2.50;;
29294;SDS011;16305;48.566;8.846;2022-09-17T04:40:54;3.90;;;2.47;;
29294;SDS011;16305;48.566;8.846;2022-09-17T04:43:21;4.87;;;2.50;;
29294;SDS011;16305;48.566;8.846;2022-09-17T04:45:47;5.67;;;2.50;;
29294;SDS011;16305;48.566;8.846;2022-09-17T04:48:13;3.13;;;2.40;;
29294;SDS011;16305;48.566;8.846;2022-09-17T04:50:39;3.83;;;2.40;;
29294;SDS011;16305;48.566;8.846;2022-09-17T04:53:04;3.00;;;2.50;;
29294;SDS011;16305;48.566;8.846;2022-09-17T04:55:30;5.27;;;2.67;;
29294;SDS011;16305;48.566;8.846;2022-09-17T04:57:55;5.40;;;2.70;;
29294;SDS011;16305;48.566;8.846;2022-09-17T05:00:22;4.50;;;2.70;;
29294;SDS011;16305;48.566;8.846;2022-09-17T05:02:49;4.93;;;2.80;;
29294;SDS011;16305;48.566;8.846;2022-09-17T05:05:16;6.03;;;2.80;;
29294;SDS011;16305;48.566;8.846;2022-09-17T05:07:43;3.83;;;3.00;;
29294;SDS011;16305;48.566;8.846;2022-09-17T05:10:09;3.93;;;2.90;;
29294;SDS011;16305;48.566;8.846;2022-09-17T05:12:36;6.37;;;3.17;;
29294;SDS011;16305;48.566;8.846;2022-09-17T05:15:01;3.83;;;3.00;;
29294;SDS011;16305;48.566;8.846;2022-09-17T05:17:27;4.60;;;2.83;;
29294;SDS011;16305;48.566;8.846;2022-09-17T05:19:53;4.97;;;3.07;;
29294;SDS011;16305;48.566;8.846;2022-09-17T05:22:18;4.67;;;3.03;;
29294;SDS011;16305;48.566;8.846;2022-09-17T05:24:44;6.43;;;3.03;;
29294;SDS011;16305;48.566;8.846;2022-09-17T05:27:10;3.93;;;3.33;;
29294;SDS011;16305;48.566;8.846;2022-09-17T05:29:36;3.83;;;2.37;;
29294;SDS011;16305;48.566;8.846;2022-09-17T05:32:02;7.47;;;3.00;;
29294;SDS011;16305;48.566;8.846;2022-09-17T05:34:28;3.73;;;3.00;;
29294;SDS011;16305;48.566;8.846;2022-09-17T05:36:53;5.40;;;3.30;;
29294;SDS011;16305;48.566;8.846;2022-09-17T05:39:19;3.70;;;3.17;;
29294;SDS011;16305;48.566;8.846;2022-09-17T05:41:52;4.90;;;3.50;;
29294;SDS011;16305;48.566;8.846;2022-09-17T05:44:19;7.27;;;5.53;;
29294;SDS011;16305;48.566;8.846;2022-09-17T05:46:45;6.97;;;4.67;;
29294;SDS011;16305;48.566;8.846;2022-09-17T05:49:12;4.90;;;4.40;;
29294;SDS011;16305;48.566;8.846;2022-09-17T05:51:39;6.67;;;4.10;;
29294;SDS011;16305;48.566;8.846;2022-09-17T05:54:05;5.30;;;3.67;;
29294;SDS011;16305;48.566;8.846;2022-09-17T05:56:31;4.00;;;3.43;;
29294;SDS011;16305;48.566;8.846;2022-09-17T05:58:56;6.53;;;3.20;;
29294;SDS011;16305;48.566;8.846;2022-09-17T06:01:22;6.83;;;2.90;;
29294;SDS011;16305;48.566;8.846;2022-09-17T06:03:48;5.23;;;3.17;;
29294;SDS011;16305;48.566;8.846;2022-09-17T06:06:13;6.47;;;3.50;;
29294;SDS011;16305;48.566;8.846;2022-09-17T06:08:39;7.73;;;3.90;;
29294;SDS011;16305;48.566;8.846;2022-09-17T06:11:05;7.70;;;3.80;;
29294;SDS011;16305;48.566;8.846;2022-09-17T06:13:31;6.60;;;3.30;;
29294;SDS011;16305;48.566;8.846;2022-09-17T06:15:57;6.10;;;3.63;;
29294;SDS011;16305;48.566;8.846;2022-09-17T06:18:23;5.47;;;3.53;;
29294;SDS011;16305;48.566;8.846;2022-09-17T06:20:56;5.40;;;3.17;;
29294;SDS011;16305;48.566;8.846;2022-09-17T06:23:23;7.27;;;2.67;;
29294;SDS011;16305;48.566;8.846;2022-09-17T06:25:52;6.03;;;2.60;;
29294;SDS011;16305;48.566;8.846;2022-09-17T06:28:19;5.07;;;2.43;;
29294;SDS011;16305;48.566;8.846;2022-09-17T06:30:45;5.47;;;2.70;;
29294;SDS011;16305;48.566;8.846;2022-09-17T06:33:11;3.47;;;2.13;;
29294;SDS011;16305;48.566;8.846;2022-09-17T06:35:37;2.83;;;2.20;;
29294;SDS011;16305;48.566;8.846;2022-09-17T06:38:03;7.47;;;2.20;;
29294;SDS011;16305;48.566;8.846;2022-09-17T06:40:29;3.70;;;2.10;;
29294;SDS011;16305;48.566;8.846;2022-09-17T06:42:58;7.73;;;2.07;;
29294;SDS011;16305;48.566;8.846;2022-09-17T06:45:24;4.43;;;1.63;;
29294;SDS011;16305;48.566;8.846;2022-09-17T06:47:50;4.73;;;1.93;;
29294;SDS011;16305;48.566;8.846;2022-09-17T06:50:16;3.03;;;1.80;;
29294;SDS011;16305;48.566;8.846;2022-09-17T06:52:52;5.33;;;1.80;;
29294;SDS011;16305;48.566;8.846;2022-09-17T06:55:18;6.50;;;2.00;;
29294;SDS011;16305;48.566;8.846;2022-09-17T06:57:45;4.50;;;1.90;;
29294;SDS011;16305;48.566;8.846;2022-09-17T07:00:11;4.57;;;1.60;;
29294;SDS011;16305;48.566;8.846;2022-09-17T07:02:37;9.97;;;2.20;;
29294;SDS011;16305;48.566;8.846;2022-09-17T07:05:03;3.67;;;1.93;;
29294;SDS011;16305;48.566;8.846;2022-09-17T07:07:29;5.57;;;2.03;;
29294;SDS011;16305;48.566;8.846;2022-09-17T07:09:55;4.40;;;1.93;;
29294;SDS011;16305;48.566;8.846;2022-09-17T07:12:21;2.17;;;1.57;;
29294;SDS011;16305;48.566;8.846;2022-09-17T07:14:46;3.53;;;1.90;;
29294;SDS011;16305;48.566;8.846;2022-09-17T07:17:12;3.33;;;2.07;;
29294;SDS011;16305;48.566;8.846;2022-09-17T07:19:38;3.10;;;2.40;;
29294;SDS011;16305;48.566;8.846;2022-09-17T07:22:04;3.97;;;2.20;;
29294;SDS011;16305;48.566;8.846;2022-09-17T07:24:30;5.10;;;2.40;;
29294;SDS011;16305;48.566;8.846;2022-09-17T07:26:56;6.23;;;3.00;;
29294;SDS011;16305;48.566;8.846;2022-09-17T07:29:22;5.63;;;2.63;;
29294;SDS011;16305;48.566;8.846;2022-09-17T07:31:50;5.20;;;2.47;;
29294;SDS011;16305;48.566;8.846;2022-09-17T07:34:16;6.80;;;2.77;;
29294;SDS011;16305;48.566;8.846;2022-09-17T07:36:42;5.80;;;2.20;;
29294;SDS011;16305;48.566;8.846;2022-09-17T07:39:08;5.50;;;2.77;;
29294;SDS011;16305;48.566;8.846;2022-09-17T07:41:34;3.07;;;2.50;;
29294;SDS011;16305;48.566;8.846;2022-09-17T07:44:00;3.90;;;2.50;;
29294;SDS011;16305;48.566;8.846;2022-09-17T07:46:26;6.00;;;2.70;;
29294;SDS011;16305;48.566;8.846;2022-09-17T07:48:52;4.97;;;3.30;;
29294;SDS011;16305;48.566;8.846;2022-09-17T07:51:22;8.63;;;2.70;;
29294;SDS011;16305;48.566;8.846;2022-09-17T07:53:52;4.97;;;2.60;;
29294;SDS011;16305;48.566;8.846;2022-09-17T07:56:18;4.47;;;2.43;;
29294;SDS011;16305;48.566;8.846;2022-09-17T07:58:45;4.53;;;2.43;;
29294;SDS011;16305;48.566;8.846;2022-09-17T08:01:10;3.57;;;2.13;;
29294;SDS011;16305;48.566;8.846;2022-09-17T08:03:37;3.43;;;2.00;;
29294;SDS011;16305;48.566;8.846;2022-09-17T08:08:33;3.20;;;1.30;;
29294;SDS011;16305;48.566;8.846;2022-09-17T08:11:10;2.17;;;1.80;;
29294;SDS011;16305;48.566;8.846;2022-09-17T08:13:38;4.10;;;2.13;;
29294;SDS011;16305;48.566;8.846;2022-09-17T08:16:05;3.63;;;1.90;;
29294;SDS011;16305;48.566;8.846;2022-09-17T08:18:32;4.40;;;1.53;;
29294;SDS011;16305;48.566;8.846;2022-09-17T08:20:59;1.47;;;1.30;;
29294;SDS011;16305;48.566;8.846;2022-09-17T08:23:28;2.90;;;1.43;;
29294;SDS011;16305;48.566;8.846;2022-09-17T08:25:55;1.60;;;1.50;;
29294;SDS011;16305;48.566;8.846;2022-09-17T08:28:22;2.63;;;1.23;;
29294;SDS011;16305;48.566;8.846;2022-09-17T08:30:49;1.37;;;1.10;;
29294;SDS011;16305;48.566;8.846;2022-09-17T08:33:16;2.93;;;1.13;;
29294;SDS011;16305;48.566;8.846;2022-09-17T08:35:42;2.60;;;1.47;;
29294;SDS011;16305;48.566;8.846;2022-09-17T08:38:17;1.33;;;1.10;;
29294;SDS011;16305;48.566;8.846;2022-09-17T08:40:46;1.97;;;1.33;;
29294;SDS011;16305;48.566;8.846;2022-09-17T08:43:22;2.43;;;1.20;;
29294;SDS011;16305;48.566;8.846;2022-09-17T08:45:55;4.27;;;1.50;;
29294;SDS011;16305;48.566;8.846;2022-09-17T08:48:22;1.93;;;1.30;;
29294;SDS011;16305;48.566;8.846;2022-09-17T08:50:52;2.80;;;1.43;;
29294;SDS011;16305;48.566;8.846;2022-09-17T08:56:05;5.27;;;2.27;;
29294;SDS011;16305;48.566;8.846;2022-09-17T08:58:50;6.07;;;2.00;;
29294;SDS011;16305;48.566;8.846;2022-09-17T09:06:28;6.37;;;2.50;;
29294;SDS011;16305;48.566;8.846;2022-09-17T09:09:04;7.97;;;2.67;;
29294;SDS011;16305;48.566;8.846;2022-09-17T09:11:35;5.77;;;2.30;;
29294;SDS011;16305;48.566;8.846;2022-09-17T09:14:21;7.53;;;2.53;;
29294;SDS011;16305;48.566;8.846;2022-09-17T09:16:52;7.70;;;2.83;;
29294;SDS011;16305;48.566;8.846;2022-09-17T09:19:23;4.50;;;2.30;;
29294;SDS011;16305;48.566;8.846;2022-09-17T09:24:31;6.63;;;2.40;;
29294;SDS011;16305;48.566;8.846;2022-09-17T09:27:16;4.57;;;1.90;;
29294;SDS011;16305;48.566;8.846;2022-09-17T09:35:24;6.77;;;2.10;;
29294;SDS011;16305;48.566;8.846;2022-09-17T09:37:56;4.73;;;2.10;;
29294;SDS011;16305;48.566;8.846;2022-09-17T09:43:19;6.50;;;2.70;;
29294;SDS011;16305;48.566;8.846;2022-09-17T09:45:58;4.33;;;2.40;;
29294;SDS011;16305;48.566;8.846;2022-09-17T09:57:21;6.67;;;2.37;;
29294;SDS011;16305;48.566;8.846;2022-09-17T09:59:49;3.40;;;2.00;;
29294;SDS011;16305;48.566;8.846;2022-09-17T10:02:15;5.33;;;2.00;;
29294;SDS011;16305;48.566;8.846;2022-09-17T10:04:40;5.40;;;2.13;;
29294;SDS011;16305;48.566;8.846;2022-09-17T10:07:07;7.17;;;2.23;;
29294;SDS011;16305;48.566;8.846;2022-09-17T10:09:35;6.23;;;1.87;;
29294;SDS011;16305;48.566;8.846;2022-09-17T10:14:34;5.57;;;1.80;;
29294;SDS011;16305;48.566;8.846;2022-09-17T10:17:13;6.87;;;1.80;;
29294;SDS011;16305;48.566;8.846;2022-09-17T10:20:07;5.23;;;1.90;;
29294;SDS011;16305;48.566;8.846;2022-09-17T10:22:40;5.23;;;1.97;;
29294;SDS011;16305;48.566;8.846;2022-09-17T10:25:26;3.93;;;1.57;;
29294;SDS011;16305;48.566;8.846;2022-09-17T10:27:56;2.97;;;1.87;;
29294;SDS011;16305;48.566;8.846;2022-09-17T10:30:24;2.77;;;1.40;;
29294;SDS011;16305;48.566;8.846;2022-09-17T10:35:59;6.87;;;1.73;;
29294;SDS011;16305;48.566;8.846;2022-09-17T10:38:39;5.40;;;1.50;;
29294;SDS011;16305;48.566;8.846;2022-09-17T10:41:07;6.93;;;1.60;;
29294;SDS011;16305;48.566;8.846;2022-09-17T10:43:41;4.37;;;1.63;;
29294;SDS011;16305;48.566;8.846;2022-09-17T10:46:08;3.20;;;1.60;;
29294;SDS011;16305;48.566;8.846;2022-09-17T10:51:36;4.57;;;1.23;;
29294;SDS011;16305;48.566;8.846;2022-09-17T10:54:05;1.53;;;1.30;;
29294;SDS011;16305;48.566;8.846;2022-09-17T10:56:53;3.70;;;1.37;;
29294;SDS011;16305;48.566;8.846;2022-09-17T11:04:50;1.83;;;1.00;;
29294;SDS011;16305;48.566;8.846;2022-09-17T11:10:03;2.83;;;1.10;;
29294;SDS011;16305;48.566;8.846;2022-09-17T11:16:02;4.57;;;1.23;;
29294;SDS011;16305;48.566;8.846;2022-09-17T11:18:44;2.07;;;1.10;;
29294;SDS011;16305;48.566;8.846;2022-09-17T11:21:32;4.27;;;1.23;;
29294;SDS011;16305;48.566;8.846;2022-09-17T11:26:58;3.93;;;1.17;;
29294;SDS011;16305;48.566;8.846;2022-09-17T11:32:20;4.60;;;1.37;;
29294;SDS011;16305;48.566;8.846;2022-09-17T11:35:06;3.47;;;1.47;;
29294;SDS011;16305;48.566;8.846;2022-09-17T11:37:43;3.97;;;1.10;;
29294;SDS011;16305;48.566;8.846;2022-09-17T11:40:16;2.97;;;1.00;;
29294;SDS011;16305;48.566;8.846;2022-09-17T11:42:52;4.73;;;1.10;;
29294;SDS011;16305;48.566;8.846;2022-09-17T11:45:28;4.40;;;1.10;;
29294;SDS011;16305;48.566;8.846;2022-09-17T11:48:02;1.87;;;0.80;;
29294;SDS011;16305;48.566;8.846;2022-09-17T11:50:36;4.00;;;0.80;;
29294;SDS011;16305;48.566;8.846;2022-09-17T11:58:42;3.20;;;1.03;;
29294;SDS011;16305;48.566;8.846;2022-09-17T12:01:16;2.47;;;1.00;;
29294;SDS011;16305;48.566;8.846;2022-09-17T12:06:53;4.23;;;0.90;;
29294;SDS011;16305;48.566;8.846;2022-09-17T12:09:25;3.07;;;1.00;;
29294;SDS011;16305;48.566;8.846;2022-09-17T12:12:07;1.50;;;1.03;;
29294;SDS011;16305;48.566;8.846;2022-09-17T12:17:09;2.80;;;1.10;;
29294;SDS011;16305;48.566;8.846;2022-09-17T12:19:46;3.00;;;1.10;;
29294;SDS011;16305;48.566;8.846;2022-09-17T12:22:25;3.57;;;0.90;;
29294;SDS011;16305;48.566;8.846;2022-09-17T12:24:55;2.40;;;0.83;;
29294;SDS011;16305;48.566;8.846;2022-09-17T12:35:48;2.40;;;1.17;;
29294;SDS011;16305;48.566;8.846;2022-09-17T12:38:46;1.57;;;1.00;;
29294;SDS011;16305;48.566;8.846;2022-09-17T12:41:48;1.33;;;0.93;;
29294;SDS011;16305;48.566;8.846;2022-09-17T12:50:13;4.53;;;1.30;;
29294;SDS011;16305;48.566;8.846;2022-09-17T13:04:10;2.93;;;1.10;;
29294;SDS011;16305;48.566;8.846;2022-09-17T13:07:05;3.13;;;1.10;;
29294;SDS011;16305;48.566;8.846;2022-09-17T13:09:58;2.93;;;1.27;;
29294;SDS011;16305;48.566;8.846;2022-09-17T13:12:36;2.03;;;0.90;;
29294;SDS011;16305;48.566;8.846;2022-09-17T13:18:16;3.60;;;1.33;;
29294;SDS011;16305;48.566;8.846;2022-09-17T13:20:58;5.50;;;1.20;;
29294;SDS011;16305;48.566;8.846;2022-09-17T13:23:46;4.93;;;1.50;;
29294;SDS011;16305;48.566;8.846;2022-09-17T13:26:14;2.83;;;1.17;;
29294;SDS011;16305;48.566;8.846;2022-09-17T13:28:45;3.33;;;1.40;;
29294;SDS011;16305;48.566;8.846;2022-09-17T13:31:11;3.13;;;1.13;;
29294;SDS011;16305;48.566;8.846;2022-09-17T13:33:50;2.60;;;1.10;;
29294;SDS011;16305;48.566;8.846;2022-09-17T13:39:11;1.27;;;0.80;;
29294;SDS011;16305;48.566;8.846;2022-09-17T13:42:22;1.90;;;1.07;;
29294;SDS011;16305;48.566;8.846;2022-09-17T13:45:03;4.03;;;2.50;;
29294;SDS011;16305;48.566;8.846;2022-09-17T13:47:35;2.77;;;1.50;;
29294;SDS011;16305;48.566;8.846;2022-09-17T13:50:04;2.27;;;0.93;;
29294;SDS011;16305;48.566;8.846;2022-09-17T13:52:45;3.93;;;1.20;;
29294;SDS011;16305;48.566;8.846;2022-09-17T13:58:02;2.30;;;1.23;;
29294;SDS011;16305;48.566;8.846;2022-09-17T14:00:59;1.33;;;1.07;;
29294;SDS011;16305;48.566;8.846;2022-09-17T14:13:54;2.03;;;1.10;;
29294;SDS011;16305;48.566;8.846;2022-09-17T14:21:39;2.13;;;1.00;;
29294;SDS011;16305;48.566;8.846;2022-09-17T14:24:24;1.87;;;1.10;;
29294;SDS011;16305;48.566;8.846;2022-09-17T14:27:00;2.07;;;1.03;;
29294;SDS011;16305;48.566;8.846;2022-09-17T14:29:44;3.47;;;1.07;;
29294;SDS011;16305;48.566;8.846;2022-09-17T14:32:29;1.73;;;1.10;;
29294;SDS011;16305;48.566;8.846;2022-09-17T14:35:30;0.87;;;0.80;;
29294;SDS011;16305;48.566;8.846;2022-09-17T14:37:57;2.33;;;0.90;;
29294;SDS011;16305;48.566;8.846;2022-09-17T14:40:27;0.90;;;0.80;;
29294;SDS011;16305;48.566;8.846;2022-09-17T14:42:55;2.40;;;1.10;;
29294;SDS011;16305;48.566;8.846;2022-09-17T14:45:26;2.90;;;1.10;;
29294;SDS011;16305;48.566;8.846;2022-09-17T14:50:42;1.37;;;0.80;;
29294;SDS011;16305;48.566;8.846;2022-09-17T14:53:11;2.13;;;0.90;;
29294;SDS011;16305;48.566;8.846;2022-09-17T14:55:40;2.23;;;1.47;;
29294;SDS011;16305;48.566;8.846;2022-09-17T14:58:18;2.77;;;1.17;;
29294;SDS011;16305;48.566;8.846;2022-09-17T15:00:57;2.90;;;1.30;;
29294;SDS011;16305;48.566;8.846;2022-09-17T15:03:23;2.67;;;1.00;;
29294;SDS011;16305;48.566;8.846;2022-09-17T15:05:49;4.30;;;1.27;;
29294;SDS011;16305;48.566;8.846;2022-09-17T15:13:46;2.00;;;1.07;;
29294;SDS011;16305;48.566;8.846;2022-09-17T15:16:25;4.80;;;1.20;;
29294;SDS011;16305;48.566;8.846;2022-09-17T15:18:57;1.47;;;1.07;;
29294;SDS011;16305;48.566;8.846;2022-09-17T15:21:29;3.07;;;1.20;;
29294;SDS011;16305;48.566;8.846;2022-09-17T15:24:23;2.13;;;1.20;;
29294;SDS011;16305;48.566;8.846;2022-09-17T15:26:51;2.90;;;1.40;;
29294;SDS011;16305;48.566;8.846;2022-09-17T15:29:23;3.90;;;1.30;;
29294;SDS011;16305;48.566;8.846;2022-09-17T15:31:52;4.23;;;1.30;;
29294;SDS011;16305;48.566;8.846;2022-09-17T15:34:18;3.77;;;1.20;;
29294;SDS011;16305;48.566;8.846;2022-09-17T15:39:51;4.47;;;1.40;;
29294;SDS011;16305;48.566;8.846;2022-09-17T15:42:23;2.90;;;1.27;;
29294;SDS011;16305;48.566;8.846;2022-09-17T15:44:52;1.43;;;1.07;;
29294;SDS011;16305;48.566;8.846;2022-09-17T15:47:47;3.47;;;1.33;;
29294;SDS011;16305;48.566;8.846;2022-09-17T15:50:22;5.23;;;1.50;;
29294;SDS011;16305;48.566;8.846;2022-09-17T15:55:34;3.73;;;1.30;;
29294;SDS011;16305;48.566;8.846;2022-09-17T15:58:03;4.40;;;2.03;;
29294;SDS011;16305;48.566;8.846;2022-09-17T16:00:43;4.23;;;1.67;;
29294;SDS011;16305;48.566;8.846;2022-09-17T16:03:38;3.53;;;1.30;;
29294;SDS011;16305;48.566;8.846;2022-09-17T16:06:06;2.40;;;1.23;;
29294;SDS011;16305;48.566;8.846;2022-09-17T16:11:17;2.97;;;1.50;;
29294;SDS011;16305;48.566;8.846;2022-09-17T16:13:44;3.30;;;1.20;;
29294;SDS011;16305;48.566;8.846;2022-09-17T16:16:18;3.87;;;1.50;;
29294;SDS011;16305;48.566;8.846;2022-09-17T16:18:45;2.47;;;1.60;;
29294;SDS011;16305;48.566;8.846;2022-09-17T16:21:14;3.50;;;2.50;;
29294;SDS011;16305;48.566;8.846;2022-09-17T16:23:41;2.40;;;1.77;;
29294;SDS011;16305;48.566;8.846;2022-09-17T16:26:20;3.77;;;1.20;;
29294;SDS011;16305;48.566;8.846;2022-09-17T16:28:51;2.07;;;0.90;;
29294;SDS011;16305;48.566;8.846;2022-09-17T16:31:20;1.13;;;0.70;;
29294;SDS011;16305;48.566;8.846;2022-09-17T16:33:46;2.93;;;0.97;;
29294;SDS011;16305;48.566;8.846;2022-09-17T16:36:11;2.50;;;1.10;;
29294;SDS011;16305;48.566;8.846;2022-09-17T16:38:40;2.50;;;1.17;;
29294;SDS011;16305;48.566;8.846;2022-09-17T16:41:06;2.80;;;0.93;;
29294;SDS011;16305;48.566;8.846;2022-09-17T16:43:32;4.43;;;1.13;;
29294;SDS011;16305;48.566;8.846;2022-09-17T16:45:59;4.20;;;1.03;;
29294;SDS011;16305;48.566;8.846;2022-09-17T16:48:26;3.90;;;1.07;;
29294;SDS011;16305;48.566;8.846;2022-09-17T16:50:51;2.37;;;1.30;;
29294;SDS011;16305;48.566;8.846;2022-09-17T16:53:17;3.77;;;1.07;;
29294;SDS011;16305;48.566;8.846;2022-09-17T16:55:42;5.97;;;2.00;;
29294;SDS011;16305;48.566;8.846;2022-09-17T16:58:08;4.17;;;1.43;;
29294;SDS011;16305;48.566;8.846;2022-09-17T17:00:33;3.27;;;1.33;;
29294;SDS011;16305;48.566;8.846;2022-09-17T17:03:01;3.67;;;1.80;;
29294;SDS011;16305;48.566;8.846;2022-09-17T17:05:28;2.13;;;0.90;;
29294;SDS011;16305;48.566;8.846;2022-09-17T17:07:54;1.47;;;0.90;;
29294;SDS011;16305;48.566;8.846;2022-09-17T17:10:20;5.00;;;1.20;;
29294;SDS011;16305;48.566;8.846;2022-09-17T17:12:46;7.63;;;1.33;;
29294;SDS011;16305;48.566;8.846;2022-09-17T17:15:12;4.23;;;1.33;;
29294;SDS011;16305;48.566;8.846;2022-09-17T17:17:38;3.47;;;1.43;;
29294;SDS011;16305;48.566;8.846;2022-09-17T17:20:05;2.10;;;1.10;;
29294;SDS011;16305;48.566;8.846;2022-09-17T17:22:37;2.73;;;1.10;;
29294;SDS011;16305;48.566;8.846;2022-09-17T17:25:04;2.53;;;1.33;;
29294;SDS011;16305;48.566;8.846;2022-09-17T17:27:31;2.87;;;1.60;;
29294;SDS011;16305;48.566;8.846;2022-09-17T17:29:58;2.93;;;2.10;;
29294;SDS011;16305;48.566;8.846;2022-09-17T17:32:25;4.73;;;1.90;;
29294;SDS011;16305;48.566;8.846;2022-09-17T17:34:51;3.27;;;1.67;;
29294;SDS011;16305;48.566;8.846;2022-09-17T17:37:17;4.77;;;1.27;;
29294;SDS011;16305;48.566;8.846;2022-09-17T17:39:42;6.33;;;1.70;;
29294;SDS011;16305;48.566;8.846;2022-09-17T17:42:08;3.13;;;1.67;;
29294;SDS011;16305;48.566;8.846;2022-09-17T17:44:33;4.37;;;1.60;;
29294;SDS011;16305;48.566;8.846;2022-09-17T17:46:59;3.73;;;1.13;;
29294;SDS011;16305;48.566;8.846;2022-09-17T17:49:25;3.73;;;1.30;;
29294;SDS011;16305;48.566;8.846;2022-09-17T17:51:51;1.53;;;1.00;;
29294;SDS011;16305;48.566;8.846;2022-09-17T17:54:17;1.63;;;0.80;;
29294;SDS011;16305;48.566;8.846;2022-09-17T17:56:43;4.00;;;0.90;;
29294;SDS011;16305;48.566;8.846;2022-09-17T17:59:09;3.47;;;0.87;;
29294;SDS011;16305;48.566;8.846;2022-09-17T18:01:34;2.13;;;0.87;;
29294;SDS011;16305;48.566;8.846;2022-09-17T18:04:02;1.23;;;0.90;;